createdAt,value
2019-03-10T00:00:03.112Z,61.40
2019-03-10T00:02:30.009Z,61.50
2019-03-10T00:04:56.727Z,61.45
2019-03-10T00:07:23.454Z,61.28
2019-03-10T00:09:50.244Z,61.44
2019-03-10T00:12:16.968Z,61.32
2019-03-10T00:14:43.928Z,61.23
2019-03-10T00:17:10.625Z,61.44
2019-03-10T00:19:37.337Z,61.39
2019-03-10T00:22:05.257Z,61.19
2019-03-10T00:24:31.958Z,61.44
2019-03-10T00:26:58.686Z,61.57
2019-03-10T00:29:25.538Z,61.94
2019-03-10T00:31:52.262Z,61.67
2019-03-10T00:34:18.979Z,61.56
2019-03-10T00:36:45.800Z,61.60
2019-03-10T00:39:32.714Z,61.68
2019-03-10T00:42:27.461Z,61.58
2019-03-10T00:45:32.655Z,61.60
2019-03-10T00:48:24.800Z,61.73
2019-03-10T00:51:24.606Z,62.24
2019-03-10T00:53:51.468Z,62.28
2019-03-10T00:56:18.227Z,62.38
2019-03-10T00:58:44.966Z,62.32
2019-03-10T01:01:11.844Z,62.36
2019-03-10T01:03:38.589Z,62.22
2019-03-10T01:06:05.292Z,62.10
2019-03-10T01:08:32.416Z,61.68
2019-03-10T01:10:59.158Z,61.59
2019-03-10T01:13:26.009Z,61.34
2019-03-10T01:15:54.117Z,61.36
2019-03-10T01:18:22.739Z,61.45
2019-03-10T01:20:51.681Z,61.79
2019-03-10T01:23:18.569Z,62.12
2019-03-10T01:25:45.300Z,61.89
2019-03-10T01:28:12.017Z,61.84
2019-03-10T01:31:02.540Z,62.04
2019-03-10T01:34:06.589Z,62.44
2019-03-10T01:36:36.348Z,62.47
2019-03-10T01:39:04.283Z,62.43
2019-03-10T01:41:31.001Z,62.32
2019-03-10T01:43:57.798Z,62.46
2019-03-10T01:46:24.540Z,62.55
2019-03-10T01:48:51.296Z,62.76
2019-03-10T01:51:18.110Z,62.86
2019-03-10T01:53:44.816Z,62.75
2019-03-10T01:56:11.579Z,62.91
2019-03-10T01:58:38.346Z,62.54
2019-03-10T02:01:05.090Z,62.49
2019-03-10T02:03:32.016Z,62.42
2019-03-10T02:05:58.695Z,62.58
2019-03-10T02:08:25.457Z,62.77
2019-03-10T02:10:52.240Z,62.72
2019-03-10T02:13:18.999Z,62.67
2019-03-10T02:15:45.790Z,62.79
2019-03-10T02:18:12.561Z,62.96
2019-03-10T02:20:39.310Z,62.96
2019-03-10T02:23:06.162Z,62.91
2019-03-10T02:25:32.913Z,62.82
2019-03-10T02:27:59.623Z,62.83
2019-03-10T02:30:26.520Z,62.91
2019-03-10T02:32:53.281Z,62.90
2019-03-10T02:35:20.155Z,62.64
2019-03-10T02:37:46.882Z,62.52
2019-03-10T02:40:13.678Z,62.43
2019-03-10T02:42:40.497Z,62.34
2019-03-10T02:45:09.201Z,62.42
2019-03-10T02:47:35.942Z,62.52
2019-03-10T02:50:05.256Z,62.57
2019-03-10T02:52:31.981Z,62.56
2019-03-10T02:54:58.701Z,62.61
2019-03-10T02:57:25.469Z,62.75
2019-03-10T02:59:52.185Z,62.53
2019-03-10T03:02:18.966Z,62.48
2019-03-10T03:04:45.831Z,62.57
2019-03-10T03:07:12.569Z,62.72
2019-03-10T03:09:39.320Z,62.77
2019-03-10T03:12:06.095Z,62.42
2019-03-10T03:14:32.804Z,62.34
2019-03-10T03:16:59.849Z,62.29
2019-03-10T03:19:26.729Z,62.25
2019-03-10T03:21:53.443Z,62.27
2019-03-10T03:24:20.192Z,62.34
2019-03-10T03:26:46.986Z,62.54
2019-03-10T03:29:13.729Z,62.59
2019-03-10T03:31:40.531Z,62.43
2019-03-10T03:34:07.308Z,62.63
2019-03-10T03:36:35.165Z,62.78
2019-03-10T03:39:18.815Z,62.68
2019-03-10T03:41:45.557Z,62.54
2019-03-10T03:44:12.424Z,62.63
2019-03-10T03:46:39.131Z,62.54
2019-03-10T03:49:05.855Z,62.41
2019-03-10T03:51:32.642Z,62.49
2019-03-10T03:53:59.394Z,62.47
2019-03-10T03:56:26.178Z,62.35
2019-03-10T03:58:52.917Z,62.52
2019-03-10T04:01:19.698Z,62.65
2019-03-10T04:03:46.390Z,62.54
2019-03-10T04:06:13.271Z,62.59
2019-03-10T04:08:39.987Z,62.50
2019-03-10T04:11:06.721Z,62.61
2019-03-10T04:13:33.607Z,62.69
2019-03-10T04:16:00.332Z,62.50
2019-03-10T04:18:27.109Z,62.16
2019-03-10T04:20:53.899Z,62.27
2019-03-10T04:23:20.605Z,62.12
2019-03-10T04:25:47.347Z,61.59
2019-03-10T04:28:14.109Z,61.40
2019-03-10T04:30:40.843Z,61.68
2019-03-10T04:33:07.621Z,61.88
2019-03-10T04:35:34.469Z,62.29
2019-03-10T04:38:01.200Z,62.21
2019-03-10T04:40:28.092Z,62.21
2019-03-10T04:42:54.821Z,62.02
2019-03-10T04:45:21.531Z,61.91
2019-03-10T04:47:48.355Z,61.72
2019-03-10T04:50:16.417Z,62.20
2019-03-10T04:52:43.403Z,62.23
2019-03-10T04:55:10.205Z,62.20
2019-03-10T04:57:36.933Z,62.30
2019-03-10T05:00:06.358Z,62.20
2019-03-10T05:02:33.553Z,62.32
2019-03-10T05:05:00.474Z,62.08
2019-03-10T05:07:27.610Z,61.94
2019-03-10T05:09:54.337Z,62.16
2019-03-10T05:12:21.080Z,62.50
2019-03-10T05:14:47.987Z,62.46
2019-03-10T05:17:14.741Z,62.38
2019-03-10T05:19:41.614Z,62.14
2019-03-10T05:22:08.499Z,62.18
2019-03-10T05:24:35.285Z,62.42
2019-03-10T05:27:04.855Z,62.60
2019-03-10T05:29:31.710Z,62.30
2019-03-10T05:31:58.440Z,62.23
2019-03-10T05:34:25.177Z,62.34
2019-03-10T05:36:51.996Z,62.47
2019-03-10T05:39:18.718Z,62.08
2019-03-10T05:41:45.430Z,61.91
2019-03-10T05:44:12.227Z,62.19
2019-03-10T05:46:38.947Z,62.47
2019-03-10T05:49:05.802Z,62.63
2019-03-10T05:51:32.534Z,62.35
2019-03-10T05:53:59.273Z,62.16
2019-03-10T05:56:26.069Z,62.36
2019-03-10T05:58:52.791Z,62.30
2019-03-10T06:01:19.728Z,62.31
2019-03-10T06:03:46.514Z,62.04
2019-03-10T06:06:13.239Z,62.26
2019-03-10T06:08:40.105Z,62.32
2019-03-10T06:11:06.851Z,62.36
2019-03-10T06:13:33.579Z,62.56
2019-03-10T06:16:00.377Z,62.50
2019-03-10T06:18:27.123Z,62.62
2019-03-10T06:20:57.260Z,62.66
2019-03-10T06:23:24.122Z,62.51
2019-03-10T06:25:50.879Z,62.70
2019-03-10T06:28:17.624Z,62.63
2019-03-10T06:30:44.407Z,62.65
2019-03-10T06:33:11.159Z,62.74
2019-03-10T06:35:38.019Z,62.77
2019-03-10T06:38:04.801Z,62.80
2019-03-10T06:40:32.560Z,62.83
2019-03-10T06:42:59.573Z,62.50
2019-03-10T06:45:26.454Z,62.96
2019-03-10T06:47:53.181Z,62.93
2019-03-10T06:50:19.981Z,63.09
2019-03-10T06:52:46.700Z,63.26
2019-03-10T06:55:13.417Z,63.37
2019-03-10T06:57:40.209Z,63.25
2019-03-10T07:00:11.257Z,63.04
2019-03-10T07:02:39.161Z,62.80
2019-03-10T07:05:09.017Z,62.78
2019-03-10T07:07:35.779Z,62.92
2019-03-10T07:10:09.770Z,62.96
2019-03-10T07:12:36.492Z,62.83
2019-03-10T07:15:06.261Z,62.67
2019-03-10T07:17:33.157Z,62.67
2019-03-10T07:19:59.877Z,63.00
2019-03-10T07:22:26.695Z,62.95
2019-03-10T07:24:53.509Z,62.78
2019-03-10T07:27:20.266Z,62.88
2019-03-10T07:29:46.993Z,62.44
2019-03-10T07:32:13.794Z,62.39
2019-03-10T07:34:40.564Z,62.36
2019-03-10T07:37:07.267Z,62.18
2019-03-10T07:39:34.041Z,62.05
2019-03-10T07:42:00.776Z,61.71
2019-03-10T07:44:27.632Z,62.10
2019-03-10T07:46:54.340Z,62.34
2019-03-10T07:49:21.103Z,62.92
2019-03-10T07:51:48.013Z,62.80
2019-03-10T07:54:14.732Z,63.00
2019-03-10T07:56:41.462Z,62.29
2019-03-10T07:59:08.290Z,61.83
2019-03-10T08:01:35.055Z,61.20
2019-03-10T08:04:01.804Z,60.93
2019-03-10T08:06:28.595Z,60.16
2019-03-10T08:08:55.332Z,59.72
2019-03-10T08:11:22.085Z,59.35
2019-03-10T08:13:48.812Z,59.08
2019-03-10T08:16:15.629Z,58.68
2019-03-10T08:18:42.375Z,58.37
2019-03-10T08:21:09.190Z,58.27
2019-03-10T08:23:35.947Z,58.18
2019-03-10T08:26:02.866Z,57.95
2019-03-10T08:28:29.594Z,57.71
2019-03-10T08:30:56.306Z,57.36
2019-03-10T08:33:23.119Z,56.88
2019-03-10T08:35:49.851Z,56.81
2019-03-10T08:38:16.582Z,56.63
2019-03-10T08:40:43.408Z,56.34
2019-03-10T08:43:10.125Z,56.42
2019-03-10T08:45:36.870Z,56.36
2019-03-10T08:48:03.751Z,56.74
2019-03-10T08:50:30.513Z,56.91
2019-03-10T08:52:57.321Z,57.02
2019-03-10T08:55:24.177Z,56.98
2019-03-10T08:57:50.901Z,57.17
2019-03-10T09:00:17.719Z,57.38
2019-03-10T09:02:44.718Z,56.52
2019-03-10T09:05:11.565Z,56.21
2019-03-10T09:07:38.315Z,55.96
2019-03-10T09:10:08.708Z,56.18
2019-03-10T09:12:35.957Z,56.34
2019-03-10T09:15:05.185Z,56.20
2019-03-10T09:17:31.994Z,56.25
2019-03-10T09:19:58.735Z,55.87
2019-03-10T09:22:25.475Z,55.57
2019-03-10T09:24:52.394Z,56.28
2019-03-10T09:27:19.150Z,56.47
2019-03-10T09:29:45.906Z,56.90
2019-03-10T09:32:12.792Z,56.45
2019-03-10T09:34:39.580Z,56.18
2019-03-10T09:37:06.328Z,55.76
2019-03-10T09:39:33.100Z,55.78
2019-03-10T09:42:08.623Z,55.67
2019-03-10T09:44:35.574Z,55.73
2019-03-10T09:47:02.320Z,55.58
2019-03-10T09:49:29.211Z,55.69
2019-03-10T09:51:56.405Z,55.89
2019-03-10T09:54:23.487Z,55.63
2019-03-10T09:56:50.242Z,55.16
2019-03-10T09:59:17.004Z,55.27
2019-03-10T10:01:43.716Z,55.73
2019-03-10T10:04:10.618Z,55.38
2019-03-10T10:06:37.323Z,55.43
2019-03-10T10:09:05.946Z,55.21
2019-03-10T10:11:32.729Z,55.03
2019-03-10T10:13:59.471Z,55.00
2019-03-10T10:16:26.281Z,54.93
2019-03-10T10:18:53.039Z,54.12
2019-03-10T10:21:19.799Z,53.92
2019-03-10T10:23:46.658Z,53.85
2019-03-10T10:26:13.449Z,54.26
2019-03-10T10:28:40.326Z,54.51
2019-03-10T10:31:07.091Z,55.19
2019-03-10T10:33:33.836Z,54.82
2019-03-10T10:36:00.605Z,54.41
2019-03-10T10:38:27.404Z,54.22
2019-03-10T10:40:54.299Z,54.57
2019-03-10T10:43:21.031Z,54.71
2019-03-10T10:45:47.749Z,54.79
2019-03-10T10:48:14.568Z,54.83
2019-03-10T10:50:41.465Z,55.08
2019-03-10T10:53:08.277Z,54.74
2019-03-10T10:55:35.155Z,54.37
2019-03-10T10:58:02.013Z,54.26
2019-03-10T11:00:28.775Z,53.96
2019-03-10T11:02:55.502Z,54.06
2019-03-10T11:05:22.318Z,53.97
2019-03-10T11:07:49.068Z,54.20
2019-03-10T11:10:15.800Z,53.80
2019-03-10T11:12:42.596Z,53.06
2019-03-10T11:15:09.450Z,52.02
2019-03-10T11:17:36.189Z,50.70
2019-03-10T11:20:07.148Z,49.20
2019-03-10T11:22:33.914Z,48.38
2019-03-10T11:25:00.813Z,48.88
2019-03-10T11:27:27.695Z,48.51
2019-03-10T11:29:54.453Z,47.86
2019-03-10T11:32:21.172Z,47.48
2019-03-10T11:34:48.000Z,47.17
2019-03-10T11:37:14.734Z,46.95
2019-03-10T11:39:41.478Z,46.94
2019-03-10T11:42:08.310Z,46.04
2019-03-10T11:44:35.078Z,45.32
2019-03-10T11:47:01.818Z,44.88
2019-03-10T11:49:28.660Z,45.03
2019-03-10T11:51:55.400Z,45.85
2019-03-10T11:54:22.143Z,46.80
2019-03-10T11:56:49.025Z,47.17
2019-03-10T11:59:15.785Z,47.43
2019-03-10T12:01:42.517Z,47.66
2019-03-10T12:04:10.484Z,47.69
2019-03-10T12:06:37.362Z,47.02
2019-03-10T12:09:05.893Z,46.63
2019-03-10T12:11:32.647Z,46.04
2019-03-10T12:13:59.382Z,45.83
2019-03-10T12:16:26.171Z,45.52
2019-03-10T12:18:52.899Z,45.46
2019-03-10T12:21:19.653Z,45.06
2019-03-10T12:23:46.529Z,44.69
2019-03-10T12:26:13.434Z,44.40
2019-03-10T12:28:41.625Z,44.30
2019-03-10T12:31:08.661Z,44.59
2019-03-10T12:33:35.370Z,44.68
2019-03-10T12:36:02.127Z,44.87
2019-03-10T12:38:29.092Z,45.16
2019-03-10T12:40:55.882Z,46.08
2019-03-10T12:43:22.633Z,46.06
2019-03-10T12:45:49.446Z,46.19
2019-03-10T12:48:16.204Z,45.84
2019-03-10T12:50:42.933Z,45.56
2019-03-10T12:53:09.741Z,45.41
2019-03-10T12:55:36.522Z,45.42
2019-03-10T12:58:03.270Z,45.06
2019-03-10T13:00:30.177Z,45.55
2019-03-10T13:02:56.908Z,45.21
2019-03-10T13:05:23.832Z,44.27
2019-03-10T13:07:50.589Z,43.68
2019-03-10T13:10:17.317Z,43.30
2019-03-10T13:12:44.184Z,43.64
2019-03-10T13:15:11.744Z,42.45
2019-03-10T13:17:38.498Z,42.42
2019-03-10T13:20:09.309Z,41.56
2019-03-10T13:22:36.056Z,41.04
2019-03-10T13:25:09.068Z,41.25
2019-03-10T13:27:35.922Z,40.82
2019-03-10T13:30:12.277Z,40.81
2019-03-10T13:32:39.027Z,41.32
2019-03-10T13:35:05.870Z,41.26
2019-03-10T13:37:32.870Z,41.68
2019-03-10T13:39:59.594Z,41.60
2019-03-10T13:42:26.336Z,41.52
2019-03-10T13:44:53.077Z,42.05
2019-03-10T13:47:19.867Z,41.79
2019-03-10T13:49:46.776Z,41.65
2019-03-10T13:52:13.507Z,41.87
2019-03-10T13:54:40.262Z,41.81
2019-03-10T13:57:07.043Z,42.24
2019-03-10T13:59:33.800Z,42.41
2019-03-10T14:02:00.703Z,43.00
2019-03-10T14:04:27.456Z,43.34
2019-03-10T14:06:54.218Z,43.72
2019-03-10T14:09:21.101Z,44.30
2019-03-10T14:11:48.045Z,45.04
2019-03-10T14:14:14.793Z,45.35
2019-03-10T14:16:41.863Z,45.49
2019-03-10T14:19:08.763Z,45.41
2019-03-10T14:21:35.788Z,45.67
2019-03-10T14:24:03.051Z,45.91
2019-03-10T14:26:29.801Z,46.13
2019-03-10T14:28:56.866Z,46.67
2019-03-10T14:31:23.703Z,46.71
2019-03-10T14:33:50.857Z,46.61
2019-03-10T14:36:17.756Z,46.53
2019-03-10T14:38:44.650Z,46.58
2019-03-10T14:41:11.465Z,46.98
2019-03-10T14:43:38.380Z,47.47
2019-03-10T14:46:05.236Z,47.79
2019-03-10T14:48:32.245Z,48.30
2019-03-10T14:50:59.250Z,48.45
2019-03-10T14:53:26.043Z,48.44
2019-03-10T14:55:52.816Z,48.43
2019-03-10T14:58:19.724Z,48.16
2019-03-10T15:00:46.494Z,47.97
2019-03-10T15:03:13.248Z,47.43
2019-03-10T15:05:40.074Z,47.35
2019-03-10T15:08:06.916Z,47.27
2019-03-10T15:10:33.932Z,47.06
2019-03-10T15:13:00.812Z,47.11
2019-03-10T15:15:27.546Z,47.40
2019-03-10T15:17:54.317Z,47.95
2019-03-10T15:20:21.822Z,48.48
2019-03-10T15:22:48.734Z,48.88
2019-03-10T15:25:19.898Z,49.13
2019-03-10T15:27:46.769Z,49.56
2019-03-10T15:30:19.421Z,50.04
2019-03-10T15:32:46.279Z,50.39
2019-03-10T15:35:13.329Z,50.59
2019-03-10T15:37:40.081Z,50.74
2019-03-10T15:40:11.786Z,51.01
2019-03-10T15:42:38.536Z,51.29
2019-03-10T15:45:09.811Z,51.46
2019-03-10T15:47:36.687Z,51.97
2019-03-10T15:50:11.632Z,51.97
2019-03-10T15:52:38.374Z,52.25
2019-03-10T15:55:05.293Z,52.52
2019-03-10T15:57:32.034Z,52.69
2019-03-10T15:59:58.813Z,52.72
2019-03-10T16:02:25.650Z,53.02
2019-03-10T16:04:52.556Z,53.13
2019-03-10T16:07:20.438Z,53.15
2019-03-10T16:09:47.959Z,53.22
2019-03-10T16:12:15.064Z,53.28
2019-03-10T16:14:42.148Z,53.41
2019-03-10T16:17:09.230Z,53.67
2019-03-10T16:19:36.408Z,53.72
2019-03-10T16:22:03.823Z,53.94
2019-03-10T16:24:30.864Z,54.09
2019-03-10T16:26:58.007Z,54.15
2019-03-10T16:29:25.302Z,54.70
2019-03-10T16:31:52.553Z,54.45
2019-03-10T16:34:19.755Z,54.31
2019-03-10T16:36:47.022Z,54.51
2019-03-10T16:39:14.231Z,54.48
2019-03-10T16:41:41.280Z,54.45
2019-03-10T16:44:08.477Z,54.53
2019-03-10T16:46:35.660Z,54.48
2019-03-10T16:49:02.863Z,54.70
2019-03-10T16:51:29.882Z,54.65
2019-03-10T16:53:57.097Z,54.76
2019-03-10T16:56:24.316Z,54.76
2019-03-10T16:58:51.508Z,54.82
2019-03-10T17:01:18.703Z,54.95
2019-03-10T17:03:45.989Z,55.15
2019-03-10T17:06:13.179Z,55.35
2019-03-10T17:08:40.304Z,55.46
2019-03-10T17:11:07.564Z,55.65
2019-03-10T17:13:34.743Z,55.78
2019-03-10T17:16:01.902Z,55.99
2019-03-10T17:18:29.148Z,56.09
2019-03-10T17:20:56.284Z,55.97
2019-03-10T17:23:23.326Z,56.01
2019-03-10T17:25:50.414Z,56.14
2019-03-10T17:28:17.554Z,56.54
2019-03-10T17:30:44.823Z,56.88
2019-03-10T17:33:12.007Z,56.83
2019-03-10T17:35:39.441Z,57.07
2019-03-10T17:38:06.421Z,56.90
2019-03-10T17:40:33.578Z,57.07
2019-03-10T17:43:00.707Z,57.35
2019-03-10T17:45:27.977Z,57.23
2019-03-10T17:47:55.122Z,57.26
2019-03-10T17:50:22.571Z,57.71
2019-03-10T17:52:49.686Z,57.67
2019-03-10T17:55:22.017Z,57.67
2019-03-10T17:57:49.562Z,58.24
2019-03-10T18:00:18.182Z,58.16
2019-03-10T18:02:45.901Z,57.95
2019-03-10T18:05:12.863Z,58.03
2019-03-10T18:07:39.587Z,57.99
2019-03-10T18:10:16.463Z,57.96
2019-03-10T18:12:43.365Z,58.04
2019-03-10T18:15:13.246Z,57.97
2019-03-10T18:17:40.165Z,58.06
2019-03-10T18:20:17.524Z,58.21
2019-03-10T18:22:44.462Z,58.32
2019-03-10T18:25:12.159Z,58.43
2019-03-10T18:27:39.008Z,58.49
2019-03-10T18:30:14.266Z,58.61
2019-03-10T18:32:44.615Z,59.13
2019-03-10T18:35:11.455Z,58.99
2019-03-10T18:37:38.378Z,58.96
2019-03-10T18:40:23.085Z,58.98
2019-03-10T18:42:49.910Z,59.10
2019-03-10T18:45:18.487Z,58.96
2019-03-10T18:47:45.337Z,59.14
2019-03-10T18:50:15.540Z,59.28
2019-03-10T18:52:42.809Z,59.17
2019-03-10T18:55:12.809Z,59.15
2019-03-10T18:57:39.733Z,59.09
2019-03-10T19:00:26.894Z,59.11
2019-03-10T19:02:53.772Z,59.16
2019-03-10T19:05:20.951Z,59.15
2019-03-10T19:07:47.781Z,59.24
2019-03-10T19:10:14.535Z,59.27
2019-03-10T19:12:41.416Z,59.27
2019-03-10T19:15:15.616Z,59.28
2019-03-10T19:17:42.487Z,59.22
2019-03-10T19:20:12.441Z,59.21
2019-03-10T19:22:39.341Z,59.16
2019-03-10T19:25:12.179Z,59.05
2019-03-10T19:27:38.949Z,59.14
2019-03-10T19:30:23.524Z,59.24
2019-03-10T19:32:50.685Z,59.07
2019-03-10T19:35:17.671Z,59.19
2019-03-10T19:37:44.580Z,59.37
2019-03-10T19:40:19.669Z,59.35
2019-03-10T19:42:46.438Z,59.37
2019-03-10T19:45:21.111Z,59.30
2019-03-10T19:47:48.180Z,59.29
2019-03-10T19:50:26.874Z,59.28
2019-03-10T19:52:52.749Z,59.18
2019-03-10T19:55:21.744Z,59.21
2019-03-10T19:57:48.539Z,59.14
2019-03-10T20:00:20.693Z,58.93
2019-03-10T20:02:47.549Z,59.10
2019-03-10T20:05:14.546Z,59.04
2019-03-10T20:07:42.037Z,58.79
2019-03-10T20:10:16.831Z,58.56
2019-03-10T20:12:43.520Z,58.64
2019-03-10T20:15:14.247Z,58.77
2019-03-10T20:17:41.031Z,59.14
2019-03-10T20:20:14.891Z,59.25
2019-03-10T20:22:41.812Z,58.98
2019-03-10T20:25:11.569Z,58.89
2019-03-10T20:27:38.394Z,58.99
2019-03-10T20:30:16.887Z,59.06
2019-03-10T20:32:43.654Z,59.14
2019-03-10T20:35:10.556Z,59.48
2019-03-10T20:37:37.332Z,59.61
2019-03-10T20:40:16.809Z,59.27
2019-03-10T20:42:43.645Z,59.30
2019-03-10T20:45:10.688Z,59.55
2019-03-10T20:47:37.392Z,59.52
2019-03-10T20:50:14.795Z,59.50
2019-03-10T20:52:41.499Z,59.47
2019-03-10T20:55:10.306Z,59.44
2019-03-10T20:57:37.083Z,59.33
2019-03-10T21:00:17.389Z,59.40
2019-03-10T21:02:44.337Z,59.48
2019-03-10T21:05:11.293Z,59.49
2019-03-10T21:07:38.078Z,59.52
2019-03-10T21:10:13.145Z,59.19
2019-03-10T21:12:42.739Z,59.25
2019-03-10T21:15:17.569Z,59.41
2019-03-10T21:17:44.526Z,59.58
2019-03-10T21:20:15.167Z,59.57
2019-03-10T21:22:41.999Z,59.59
2019-03-10T21:25:15.753Z,59.58
2019-03-10T21:27:42.902Z,59.71
2019-03-10T21:30:14.006Z,59.82
2019-03-10T21:32:40.757Z,59.77
2019-03-10T21:35:17.173Z,59.97
2019-03-10T21:37:36.252Z,60.01
2019-03-10T21:40:11.553Z,60.01
2019-03-10T21:42:38.256Z,59.84
2019-03-10T21:45:07.964Z,59.94
2019-03-10T21:47:34.735Z,59.93
2019-03-10T21:50:01.759Z,59.82
2019-03-10T21:52:28.484Z,59.70
2019-03-10T21:54:55.376Z,59.68
2019-03-10T21:57:22.113Z,59.92
2019-03-10T21:59:48.829Z,60.07
2019-03-10T22:02:15.584Z,60.09
2019-03-10T22:04:42.383Z,60.28
2019-03-10T22:07:09.225Z,60.40
2019-03-10T22:09:35.937Z,60.24
2019-03-10T22:12:02.651Z,60.41
2019-03-10T22:14:29.526Z,60.34
2019-03-10T22:16:56.290Z,61.10
2019-03-10T22:19:23.197Z,60.97
2019-03-10T22:21:50.021Z,60.85
2019-03-10T22:24:16.747Z,60.65
2019-03-10T22:26:43.473Z,60.81
2019-03-10T22:29:10.264Z,60.56
2019-03-10T22:31:36.981Z,60.78
2019-03-10T22:34:03.713Z,61.22
2019-03-10T22:36:30.631Z,61.11
2019-03-10T22:38:57.392Z,60.82
2019-03-10T22:41:24.093Z,60.71
2019-03-10T22:43:50.955Z,60.81
2019-03-10T22:46:17.701Z,60.93
2019-03-10T22:48:44.421Z,61.08
2019-03-10T22:51:11.162Z,60.80
2019-03-10T22:53:37.902Z,60.71
2019-03-10T22:56:04.801Z,60.85
2019-03-10T22:58:31.511Z,60.81
2019-03-10T23:00:58.249Z,60.96
2019-03-10T23:03:25.106Z,61.01
2019-03-10T23:05:51.861Z,60.98
2019-03-10T23:08:18.578Z,60.90
2019-03-10T23:10:45.405Z,61.02
2019-03-10T23:13:12.147Z,60.96
2019-03-10T23:15:38.889Z,61.05
2019-03-10T23:18:05.679Z,60.86
2019-03-10T23:20:32.420Z,60.98
2019-03-10T23:22:59.142Z,60.89
2019-03-10T23:25:25.939Z,60.93
2019-03-10T23:27:52.741Z,60.98
2019-03-10T23:30:19.548Z,61.22
2019-03-10T23:32:46.291Z,61.21
2019-03-10T23:35:13.107Z,61.21
2019-03-10T23:37:40.032Z,61.25
2019-03-10T23:40:13.602Z,61.23
2019-03-10T23:42:40.436Z,61.24
2019-03-10T23:45:14.158Z,61.13
2019-03-10T23:47:40.899Z,61.14
2019-03-10T23:50:16.245Z,61.21
2019-03-10T23:52:42.985Z,60.93
2019-03-10T23:55:11.651Z,61.03
2019-03-10T23:57:38.543Z,61.13
